Terminal Aerodrome Forecast
Issued by NWS Lake Charles, LA

Home | Current Version | Previous Version | Text Only | Print | Product List | Glossary On
Versions: 1 2 3 4 5 6 7 8 9 10 11 12 13 14 15 16 17 18 19
000
FTUS44 KLCH 251734
TAFLFT
TAF
KLFT 251734Z 2518/2618 VRB06KT P6SM VCTS SCT025CB BKN035
     FM251900 VRB06KT 6SM -SHRA VCTS BKN025CB BKN035
      TEMPO 2519/2523 2SM +TSRA SCT012 BKN025CB OVC035
     FM260200 VRB03KT P6SM FEW025 BKN250
     FM261200 VRB03KT P6SM VCSH SCT025
     FM261500 VRB06KT P6SM VCTS SCT025CB BKN035=

USA.gov is the U.S. government's official web portal to all federal, state and local government web resources and services.